Time;durP1;ratioP1;P1;durP2;ratioP2;P2;SDS_P1;SDS_P2;PMS_P1;PMS_P2;Temp;Humidity;BMP_temperature;BMP_pressure;BME280_temperature;BME280_humidity;BME280_pressure;Samples;Min_cycle;Max_cycle;Signal;HPM_P1;HPM_P2
2023/07/28 00:01:42;;;;;;;22.13;19.55;;;;;;;-145.63;60.07;38292.91;5038358;28;20053;-73
2023/07/28 00:04:10;;;;;;;24.95;20.50;;;;;;;-145.63;60.22;38281.19;5025714;28;20080;-72
2023/07/28 00:06:36;;;;;;;22.98;19.90;;;;;;;-145.63;59.90;38277.28;5031376;28;20248;-71
2023/07/28 00:09:02;;;;;;;24.20;19.13;;;;;;;-145.63;59.61;38269.47;5044325;28;20048;-71
2023/07/28 00:11:28;;;;;;;23.80;19.52;;;;;;;-145.63;59.86;38267.50;5024644;28;20322;-72
2023/07/28 00:13:53;;;;;;;23.98;20.88;;;;;;;-145.63;59.98;38269.47;5042054;28;20029;-73
2023/07/28 00:16:19;;;;;;;21.20;18.40;;;;;;;-145.63;59.68;38275.31;5033778;28;20034;-74
2023/07/28 00:18:45;;;;;;;22.63;18.67;;;;;;;-145.63;59.62;38261.63;5032515;28;20084;-74
2023/07/28 00:21:10;;;;;;;22.48;18.08;;;;;;;-145.63;59.69;38238.16;5045015;28;20026;-73
2023/07/28 00:23:36;;;;;;;22.40;18.42;;;;;;;-145.63;59.40;38273.38;5045610;28;20029;-73
2023/07/28 00:26:02;;;;;;;19.33;17.27;;;;;;;-145.63;59.79;38242.09;5027928;28;20031;-72
2023/07/28 00:28:27;;;;;;;21.60;18.67;;;;;;;-145.63;59.30;38257.72;5037682;28;20075;-73
2023/07/28 00:30:53;;;;;;;20.95;17.63;;;;;;;-145.63;59.80;38234.25;5043108;28;20067;-73
2023/07/28 00:33:19;;;;;;;27.65;20.60;;;;;;;-145.63;59.60;38247.94;5044826;28;20044;-73
2023/07/28 00:35:44;;;;;;;22.52;18.92;;;;;;;-145.63;59.83;38300.75;5045300;28;20035;-73
2023/07/28 00:38:10;;;;;;;21.45;18.65;;;;;;;-145.63;60.19;38249.91;5036910;28;20028;-73
2023/07/28 00:40:36;;;;;;;25.42;19.17;;;;;;;-145.63;59.88;38265.53;5032642;28;20048;-72
2023/07/28 00:43:02;;;;;;;22.30;18.70;;;;;;;-145.63;59.92;38265.53;5044775;28;20082;-73
2023/07/28 00:45:30;;;;;;;20.98;18.85;;;;;;;-145.63;59.89;38273.38;5040480;28;20319;-72
2023/07/28 00:47:57;;;;;;;25.77;18.60;;;;;;;-145.63;60.32;38244.03;5025212;28;20030;-72
2023/07/28 00:50:23;;;;;;;23.70;20.38;;;;;;;-145.63;60.57;38296.81;5024811;28;20034;-73
2023/07/28 00:52:50;;;;;;;24.10;21.58;;;;;;;-145.63;61.13;38308.56;5040225;28;20195;-74
2023/07/28 00:55:16;;;;;;;26.00;20.27;;;;;;;-145.63;60.75;38294.88;5033839;28;20026;-73
2023/07/28 00:57:42;;;;;;;24.50;19.92;;;;;;;-145.63;60.71;38300.75;5031205;28;20036;-74
2023/07/28 01:00:08;;;;;;;22.67;20.25;;;;;;;-145.63;60.17;38308.56;5042147;28;20018;-71
2023/07/28 01:02:35;;;;;;;24.77;21.00;;;;;;;-145.63;60.32;38265.53;5042293;28;20042;-71
2023/07/28 01:05:01;;;;;;;25.50;22.23;;;;;;;-145.63;60.52;38310.50;5044386;28;20044;-71
2023/07/28 01:08:03;;;;;;;24.10;21.42;;;;;;;-145.63;60.77;38290.97;5032149;28;20064;-72
2023/07/28 01:10:32;;;;;;;29.35;25.98;;;;;;;-145.63;60.86;38304.66;5032791;28;20045;-73
2023/07/28 01:12:58;;;;;;;23.73;20.95;;;;;;;-145.63;60.88;38318.34;5044357;28;20306;-75
2023/07/28 01:15:24;;;;;;;24.80;21.52;;;;;;;-145.63;60.68;38302.69;5040843;28;20088;-75
2023/07/28 01:17:50;;;;;;;27.02;21.50;;;;;;;-145.63;60.71;38271.41;5024593;28;20029;-75
2023/07/28 01:20:16;;;;;;;24.50;22.13;;;;;;;-145.63;60.80;38361.34;5043167;28;20033;-76
2023/07/28 01:22:51;;;;;;;21.98;19.63;;;;;;;-145.63;60.65;38308.56;5043951;28;20029;-75
2023/07/28 01:25:39;;;;;;;25.40;22.60;;;;;;;-145.63;60.90;38332.03;5033409;28;20084;-75
2023/07/28 01:28:05;;;;;;;25.60;22.58;;;;;;;-145.63;60.99;38343.75;5033024;28;21969;-75
2023/07/28 01:30:31;;;;;;;26.95;21.38;;;;;;;-145.63;60.81;38328.13;5042735;28;20033;-74
2023/07/28 01:32:57;;;;;;;26.23;21.60;;;;;;;-145.63;61.41;38382.88;5044088;28;20029;-73
2023/07/28 01:35:25;;;;;;;23.52;20.50;;;;;;;-145.63;61.10;38351.56;5024341;28;20092;-73
2023/07/28 01:37:51;;;;;;;22.83;20.52;;;;;;;-145.63;61.14;38337.88;5039209;28;20048;-74
2023/07/28 01:40:18;;;;;;;27.15;23.92;;;;;;;-145.63;61.06;38353.53;5049719;28;20282;-74
2023/07/28 01:42:43;;;;;;;31.67;24.17;;;;;;;-145.63;61.61;38388.72;5043659;28;20029;-74
2023/07/28 01:45:09;;;;;;;32.45;25.33;;;;;;;-145.63;62.31;38644.88;5042621;28;20029;-74
2023/07/28 01:47:35;;;;;;;27.88;25.05;;;;;;;-145.63;62.02;38388.72;5030809;28;20234;-73
2023/07/28 01:50:01;;;;;;;28.58;24.35;;;;;;;-145.63;61.92;38398.50;5040861;28;20315;-72
2023/07/28 01:52:29;;;;;;;23.63;20.67;;;;;;;-145.63;61.62;38384.81;5032449;28;20025;-73
2023/07/28 01:54:55;;;;;;;26.27;22.88;;;;;;;-145.63;61.91;38349.63;5030143;28;20064;-73
2023/07/28 01:57:24;;;;;;;28.88;24.52;;;;;;;-145.63;61.83;38388.72;5026385;28;20041;-74
2023/07/28 01:59:50;;;;;;;28.20;25.25;;;;;;;-145.63;62.25;38402.41;5043916;28;20029;-74
2023/07/28 02:02:15;;;;;;;26.27;23.48;;;;;;;-145.63;61.79;38375.03;5025955;28;20064;-75
2023/07/28 02:04:41;;;;;;;28.70;23.80;;;;;;;-145.63;61.66;38380.91;5037658;28;20280;-76
2023/07/28 02:07:07;;;;;;;25.13;21.52;;;;;;;-145.63;61.32;38371.13;5035245;28;20037;-76
2023/07/28 02:09:32;;;;;;;28.95;23.33;;;;;;;-145.63;61.43;38390.69;5028157;28;20033;-75
2023/07/28 02:11:58;;;;;;;28.05;22.67;;;;;;;-145.63;61.49;38365.25;5044466;28;20030;-76
2023/07/28 02:14:23;;;;;;;26.83;21.38;;;;;;;-145.63;61.16;38380.91;5043743;28;20040;-75
2023/07/28 02:16:49;;;;;;;28.77;25.75;;;;;;;-145.63;61.42;38410.22;5029054;28;20034;-76
2023/07/28 02:19:36;;;;;;;27.40;24.55;;;;;;;-145.63;62.04;38369.19;5024253;28;20105;-72
2023/07/28 02:22:01;;;;;;;29.02;23.60;;;;;;;-145.63;61.64;38369.19;5033773;28;20036;-75
2023/07/28 02:24:27;;;;;;;26.40;23.55;;;;;;;-145.63;61.95;38412.19;5038811;28;20018;-76
2023/07/28 02:26:54;;;;;;;26.73;23.10;;;;;;;-145.63;62.48;38425.88;5023900;28;20029;-75
2023/07/28 02:29:20;;;;;;;27.45;22.65;;;;;;;-145.63;63.01;38429.78;5042261;28;20060;-74
2023/07/28 02:31:45;;;;;;;24.90;22.27;;;;;;;-145.63;62.98;38443.47;5042637;28;20302;-75
2023/07/28 02:34:11;;;;;;;26.17;22.50;;;;;;;-145.63;63.04;38425.88;5041490;28;20031;-74
2023/07/28 02:36:37;;;;;;;24.75;22.20;;;;;;;-145.63;62.89;38443.47;5038140;28;20037;-74
2023/07/28 02:39:02;;;;;;;24.23;21.20;;;;;;;-145.63;62.77;38439.56;5029920;28;20026;-74
2023/07/28 02:41:28;;;;;;;25.42;22.65;;;;;;;-145.63;62.60;38464.97;5039389;28;20047;-75
2023/07/28 02:43:54;;;;;;;25.40;22.50;;;;;;;-145.63;62.23;38421.97;5028038;28;20323;-74
2023/07/28 02:46:20;;;;;;;24.30;21.60;;;;;;;-145.63;61.69;38392.63;5022801;28;20659;-74
2023/07/28 02:48:45;;;;;;;23.80;19.88;;;;;;;-145.63;61.64;38392.63;5028830;28;20025;-75
2023/07/28 02:51:11;;;;;;;26.02;21.55;;;;;;;-145.63;61.44;38359.41;5041878;28;20022;-73
2023/07/28 02:53:37;;;;;;;23.92;20.42;;;;;;;-145.63;61.75;38414.16;5023294;28;20029;-73
2023/07/28 02:56:02;;;;;;;28.08;22.30;;;;;;;-145.63;61.53;38369.19;5038947;28;20040;-74
2023/07/28 02:58:28;;;;;;;22.13;19.80;;;;;;;-145.63;61.15;38390.69;5031320;28;20022;-73
2023/07/28 03:00:54;;;;;;;23.92;20.40;;;;;;;-145.63;61.21;38349.63;5029426;28;20171;-75
2023/07/28 03:03:20;;;;;;;27.92;22.33;;;;;;;-145.63;61.28;38382.88;5040763;28;20376;-74
2023/07/28 03:05:45;;;;;;;25.90;21.48;;;;;;;-145.63;61.21;38337.88;5022929;28;20025;-75
2023/07/28 03:08:11;;;;;;;25.73;21.90;;;;;;;-145.63;61.23;38339.84;5040091;28;20033;-74
2023/07/28 03:10:37;;;;;;;25.17;20.85;;;;;;;-145.63;61.25;38349.63;5030583;28;20053;-75
2023/07/28 03:13:02;;;;;;;25.35;21.40;;;;;;;-145.63;61.20;38367.22;5030439;28;20025;-73
2023/07/28 03:15:28;;;;;;;22.85;20.33;;;;;;;-145.63;60.64;38328.13;5039615;28;20080;-75
2023/07/28 03:17:54;;;;;;;25.67;20.52;;;;;;;-145.63;60.55;38371.13;5023158;28;20101;-76
2023/07/28 03:20:20;;;;;;;22.95;19.38;;;;;;;-145.63;60.52;38361.34;5039653;28;20049;-75
2023/07/28 03:22:46;;;;;;;22.63;19.90;;;;;;;-145.63;60.38;38355.50;5029307;28;20100;-75
2023/07/28 03:25:12;;;;;;;22.65;19.83;;;;;;;-145.63;60.36;38320.28;5022479;28;20049;-74
2023/07/28 03:27:38;;;;;;;23.33;18.85;;;;;;;-145.63;59.96;38341.81;5026801;28;20229;-76
2023/07/28 03:30:06;;;;;;;22.60;19.60;;;;;;;-145.63;60.01;38332.03;5042813;28;20314;-74
2023/07/28 03:32:32;;;;;;;23.70;18.90;;;;;;;-145.63;60.05;38335.94;5042883;28;20210;-74
2023/07/28 03:34:58;;;;;;;24.90;20.77;;;;;;;-145.63;60.17;38353.53;5027374;28;20337;-74
2023/07/28 03:37:24;;;;;;;20.98;18.42;;;;;;;-145.63;59.97;38328.13;5032742;28;20033;-73
2023/07/28 03:39:49;;;;;;;21.25;18.92;;;;;;;-145.63;59.94;38337.88;5036773;28;20373;-76
2023/07/28 03:42:15;;;;;;;21.30;19.00;;;;;;;-145.63;59.82;38273.38;5040438;28;20029;-75
2023/07/28 03:44:41;;;;;;;22.15;19.52;;;;;;;-145.63;59.61;38320.28;5042543;28;20088;-77
2023/07/28 03:47:07;;;;;;;21.67;19.45;;;;;;;-145.63;59.83;38296.81;5028231;28;20314;-74
2023/07/28 03:49:33;;;;;;;26.23;19.80;;;;;;;-145.63;59.78;38314.44;5025941;28;20060;-75
2023/07/28 03:51:59;;;;;;;25.35;18.70;;;;;;;-145.63;60.32;38326.16;5032912;28;20029;-73
2023/07/28 03:54:25;;;;;;;22.75;18.20;;;;;;;-145.63;60.50;38314.44;5043490;28;20065;-74
2023/07/28 03:56:51;;;;;;;22.73;20.33;;;;;;;-145.63;60.62;38332.03;5026231;28;20026;-76
2023/07/28 03:59:17;;;;;;;26.27;20.42;;;;;;;-145.63;61.07;38377.00;5043056;28;20026;-75
2023/07/28 04:01:42;;;;;;;23.10;20.00;;;;;;;-145.63;61.83;38398.50;5045163;28;20024;-73
2023/07/28 04:04:08;;;;;;;29.13;23.00;;;;;;;-145.63;63.91;38427.84;5045850;28;20033;-74
2023/07/28 04:06:43;;;;;;;29.50;24.00;;;;;;;-145.63;65.13;38472.81;5041260;28;20029;-75
2023/07/28 04:09:09;;;;;;;28.25;24.85;;;;;;;-145.63;64.97;38449.34;5025674;28;20026;-74
2023/07/28 04:11:35;;;;;;;30.10;25.65;;;;;;;-145.63;65.27;38504.09;5045648;28;20036;-72
2023/07/28 04:14:00;;;;;;;29.98;26.80;;;;;;;-145.63;65.06;38449.34;5030629;28;20096;-72
2023/07/28 04:16:26;;;;;;;32.92;27.75;;;;;;;-145.63;65.34;38504.09;5025529;28;20026;-72
2023/07/28 04:18:52;;;;;;;32.55;27.33;;;;;;;-145.63;66.26;38492.34;5031283;28;20093;-72
2023/07/28 04:21:17;;;;;;;29.80;25.65;;;;;;;-145.63;65.68;38496.28;5044938;28;20040;-72
2023/07/28 04:23:43;;;;;;;27.13;24.30;;;;;;;-145.63;65.67;38506.03;5045806;28;20030;-72
2023/07/28 04:26:09;;;;;;;33.22;27.42;;;;;;;-145.63;65.72;38472.81;5029149;28;20030;-71
2023/07/28 04:28:35;;;;;;;26.25;23.52;;;;;;;-145.63;65.79;38504.09;5036526;28;20021;-71
2023/07/28 04:31:00;;;;;;;32.08;26.17;;;;;;;-145.63;65.50;38451.28;5044802;28;20182;-72
2023/07/28 04:33:26;;;;;;;26.63;23.23;;;;;;;-145.63;65.08;38492.34;5043121;28;20029;-72
2023/07/28 04:35:52;;;;;;;26.55;23.67;;;;;;;-145.63;65.06;38496.28;5025526;28;20048;-73
2023/07/28 04:38:18;;;;;;;33.80;24.95;;;;;;;-145.63;65.26;38502.13;5036678;28;20022;-72
2023/07/28 04:40:44;;;;;;;24.08;21.55;;;;;;;-145.63;65.21;38478.66;5036662;28;20210;-72
2023/07/28 04:43:10;;;;;;;28.60;25.52;;;;;;;-145.63;65.64;38506.03;5044033;28;20025;-70
2023/07/28 04:45:36;;;;;;;29.90;24.38;;;;;;;-145.63;65.64;38494.31;5042448;28;20061;-72
2023/07/28 04:48:02;;;;;;;29.20;26.17;;;;;;;-145.63;65.90;38492.34;5025350;28;20052;-71
2023/07/28 04:50:28;;;;;;;25.13;22.58;;;;;;;-145.63;65.36;38549.06;5040782;28;20183;-71
2023/07/28 04:52:54;;;;;;;30.52;24.77;;;;;;;-145.63;65.75;38470.84;5025098;28;20101;-71
2023/07/28 04:55:20;;;;;;;25.75;22.65;;;;;;;-145.63;65.47;38504.09;5024646;28;20785;-72
2023/07/28 04:57:46;;;;;;;28.05;24.52;;;;;;;-145.63;65.57;38513.88;5028652;28;20033;-73
2023/07/28 05:00:12;;;;;;;30.08;25.40;;;;;;;-145.63;65.71;38484.53;5044858;28;20028;-75
2023/07/28 05:02:38;;;;;;;26.83;21.48;;;;;;;-145.63;65.20;38502.13;5042281;28;20045;-72
2023/07/28 05:05:04;;;;;;;22.20;19.83;;;;;;;-145.63;65.29;38515.81;5044164;28;20083;-74
2023/07/28 05:07:30;;;;;;;26.33;23.17;;;;;;;-145.63;65.79;38592.09;5034145;28;20030;-72
2023/07/28 05:09:56;;;;;;;23.35;20.42;;;;;;;-145.63;65.81;38531.47;5024694;28;20187;-72
2023/07/28 05:12:21;;;;;;;25.35;21.65;;;;;;;-145.63;66.16;38506.03;5025274;28;20084;-73
2023/07/28 05:14:47;;;;;;;22.10;19.45;;;;;;;-145.63;65.47;38488.44;5043233;28;20282;-74
2023/07/28 05:17:14;;;;;;;21.85;19.63;;;;;;;-145.63;65.48;38439.56;5027363;28;20283;-70
2023/07/28 05:19:40;;;;;;;23.63;19.15;;;;;;;-145.63;64.85;38498.22;5036107;28;20048;-71
2023/07/28 05:22:09;;;;;;;22.65;19.40;;;;;;;-145.63;65.00;38511.91;5043895;28;20026;-71
2023/07/28 05:24:35;;;;;;;22.50;18.25;;;;;;;-145.63;65.06;38482.59;5041243;28;20040;-72
2023/07/28 05:27:00;;;;;;;21.80;18.27;;;;;;;-145.63;64.65;38445.44;5024177;28;20246;-71
2023/07/28 05:29:26;;;;;;;20.27;18.23;;;;;;;-145.63;64.11;38457.16;5040791;28;20217;-71
2023/07/28 05:31:52;;;;;;;19.90;17.75;;;;;;;-145.63;64.69;38449.34;5043681;28;20317;-70
2023/07/28 05:34:18;;;;;;;15.70;14.10;;;;;;;-145.63;63.01;38414.16;5032274;28;20097;-70
2023/07/28 05:36:44;;;;;;;15.45;13.13;;;;;;;-145.63;62.91;38355.50;5043824;28;20044;-71
2023/07/28 05:39:10;;;;;;;14.30;12.85;;;;;;;-145.63;62.99;38363.31;5043931;28;20029;-70
2023/07/28 05:41:39;;;;;;;13.88;12.48;;;;;;;-145.63;62.83;38287.06;5037400;28;20044;-71
2023/07/28 05:44:04;;;;;;;15.07;13.57;;;;;;;-145.63;62.86;38332.03;5043862;28;20021;-72
2023/07/28 05:46:30;;;;;;;17.05;15.30;;;;;;;-145.63;63.88;38333.97;5035753;28;20033;-70
2023/07/28 05:48:56;;;;;;;15.18;13.30;;;;;;;-145.63;63.30;38312.47;5043061;28;20198;-68
2023/07/28 05:51:22;;;;;;;14.15;12.75;;;;;;;-145.63;62.48;38253.81;5042636;28;20021;-72
2023/07/28 05:53:50;;;;;;;13.65;12.20;;;;;;;-145.63;62.25;38220.56;5023730;28;20230;-70
2023/07/28 05:56:15;;;;;;;14.20;11.80;;;;;;;-145.63;62.01;38246.00;5039724;28;20021;-71
2023/07/28 05:58:41;;;;;;;16.70;14.93;;;;;;;-145.63;62.79;38169.75;5050604;28;20080;-70
2023/07/28 06:01:07;;;;;;;12.63;11.48;;;;;;;-145.63;61.31;38265.53;5042995;28;20037;-71
2023/07/28 06:03:33;;;;;;;13.20;11.80;;;;;;;-145.63;61.94;38197.13;5043160;28;20049;-71
2023/07/28 06:05:58;;;;;;;45.60;40.95;;;;;;;-145.63;62.22;38066.13;5043261;28;20083;-72
2023/07/28 06:08:24;;;;;;;15.38;13.40;;;;;;;-145.63;61.44;38226.44;5039167;28;20045;-71
2023/07/28 06:10:50;;;;;;;14.30;12.80;;;;;;;-145.63;61.15;38214.72;5030016;28;20302;-71
2023/07/28 06:13:15;;;;;;;19.25;14.30;;;;;;;-145.63;60.24;38230.34;5023551;28;20053;-70
2023/07/28 06:15:42;;;;;;;12.13;10.93;;;;;;;-145.63;59.69;38242.09;5026405;28;20093;-70
2023/07/28 06:18:08;;;;;;;11.82;9.80;;;;;;;-145.63;59.20;38206.88;5030751;28;20218;-70
2023/07/28 06:20:34;;;;;;;11.05;9.68;;;;;;;-145.63;59.29;38206.88;5041649;28;20063;-70
2023/07/28 06:23:00;;;;;;;13.38;10.43;;;;;;;-145.63;60.00;38189.28;5043177;28;20025;-71
2023/07/28 06:25:26;;;;;;;11.93;9.80;;;;;;;-145.63;58.97;38152.16;5033982;28;20054;-70
2023/07/28 06:27:52;;;;;;;13.23;10.43;;;;;;;-145.63;59.21;38156.06;5027698;28;20036;-70
2023/07/28 06:30:18;;;;;;;12.60;9.23;;;;;;;-145.63;58.64;38167.78;5042712;28;20084;-70
2023/07/28 06:32:44;;;;;;;14.00;10.73;;;;;;;-145.63;60.09;38128.69;5041923;28;20076;-70
2023/07/28 06:35:10;;;;;;;11.05;9.50;;;;;;;-145.63;59.28;38130.63;5027780;28;20030;-71
2023/07/28 06:37:39;;;;;;;16.45;9.30;;;;;;;-145.63;57.63;38132.59;5027845;28;20021;-71
2023/07/28 06:40:06;;;;;;;11.48;9.18;;;;;;;-145.63;58.13;38075.91;5032607;28;20080;-70
2023/07/28 06:42:33;;;;;;;10.60;8.68;;;;;;;-145.63;56.99;38113.03;5029879;28;20089;-70
2023/07/28 06:44:59;;;;;;;10.70;8.32;;;;;;;-145.63;57.43;38101.31;5030977;28;20029;-70
2023/07/28 06:47:24;;;;;;;11.45;8.15;;;;;;;-145.63;57.43;38115.00;5031762;28;20028;-71
2023/07/28 06:49:50;;;;;;;14.80;9.13;;;;;;;-145.63;57.95;38109.13;5032571;28;20013;-69
2023/07/28 06:52:16;;;;;;;11.25;9.05;;;;;;;-145.63;58.89;38140.41;5032948;28;20041;-71
2023/07/28 06:54:41;;;;;;;10.25;7.57;;;;;;;-145.63;57.05;38218.63;5033025;28;20068;-71
2023/07/28 06:57:07;;;;;;;11.15;7.40;;;;;;;-145.63;57.45;38214.72;5031579;28;20036;-71
2023/07/28 06:59:33;;;;;;;10.93;8.52;;;;;;;-145.63;57.76;38199.06;5032587;28;20018;-71
2023/07/28 07:01:59;;;;;;;11.35;7.97;;;;;;;-145.63;57.82;38218.63;5032168;28;20107;-71
2023/07/28 07:04:24;;;;;;;12.73;8.52;;;;;;;-145.63;58.63;38269.47;5032502;28;20038;-73
2023/07/28 07:06:50;;;;;;;15.98;10.10;;;;;;;-145.63;60.30;38269.47;5032846;28;20037;-71
2023/07/28 07:09:16;;;;;;;20.00;10.05;;;;;;;-145.63;61.30;38316.38;5031317;28;20374;-74
2023/07/28 07:11:41;;;;;;;18.25;12.40;;;;;;;-145.63;61.82;38328.13;5033061;28;20045;-72
2023/07/28 07:14:07;;;;;;;20.13;12.20;;;;;;;-145.63;62.00;38339.84;5032982;28;20025;-72
2023/07/28 07:16:34;;;;;;;13.35;10.65;;;;;;;-145.63;61.88;38353.53;5032535;28;20025;-71
2023/07/28 07:19:00;;;;;;;13.40;9.63;;;;;;;-145.63;61.56;38335.94;5032216;28;20029;-71
2023/07/28 07:21:27;;;;;;;13.40;10.10;;;;;;;-145.63;61.60;38330.06;5034196;28;20022;-71
2023/07/28 07:23:53;;;;;;;13.10;10.10;;;;;;;-145.63;61.24;38330.06;5036905;28;20059;-71
2023/07/28 07:26:18;;;;;;;16.25;12.52;;;;;;;-145.63;61.02;38212.75;5035967;28;20290;-73
2023/07/28 07:28:44;;;;;;;18.17;12.70;;;;;;;-145.63;62.66;38179.50;5050441;28;20036;-72
2023/07/28 07:31:13;;;;;;;17.77;11.10;;;;;;;-145.63;62.43;38290.97;5037008;28;20040;-71
2023/07/28 07:33:39;;;;;;;16.60;11.23;;;;;;;-145.63;62.75;38314.44;5035577;28;20302;-71
2023/07/28 07:36:05;;;;;;;16.42;12.48;;;;;;;-145.63;62.87;38320.28;5038362;28;20075;-72
2023/07/28 07:38:31;;;;;;;15.27;11.73;;;;;;;-145.63;62.28;38290.97;5034873;28;20017;-72
2023/07/28 07:40:56;;;;;;;14.77;11.80;;;;;;;-145.63;62.33;38332.03;5038133;28;20093;-71
2023/07/28 07:43:22;;;;;;;14.15;10.60;;;;;;;-145.63;61.73;38322.25;5036257;28;20337;-71
2023/07/28 07:45:50;;;;;;;15.05;10.65;;;;;;;-145.63;61.92;38259.69;5036789;28;20656;-70
2023/07/28 07:48:16;;;;;;;12.27;10.02;;;;;;;-145.63;61.81;38251.84;5029124;28;20056;-71
2023/07/28 07:50:41;;;;;;;14.82;10.32;;;;;;;-145.63;61.89;38277.28;5036618;28;20034;-72
2023/07/28 07:53:07;;;;;;;19.48;12.75;;;;;;;-145.63;62.05;38333.97;5036421;28;20061;-71
2023/07/28 07:55:33;;;;;;;14.02;11.25;;;;;;;-145.63;61.94;38281.19;5036415;28;20318;-72
2023/07/28 07:57:58;;;;;;;12.70;10.48;;;;;;;-145.63;61.34;38298.78;5033725;28;20026;-71
2023/07/28 08:00:24;;;;;;;12.65;11.10;;;;;;;-145.63;61.38;38279.22;5033951;28;20030;-70
2023/07/28 08:02:50;;;;;;;12.63;10.95;;;;;;;-145.63;61.46;38289.00;5027895;28;20033;-71
2023/07/28 08:05:16;;;;;;;15.65;12.02;;;;;;;-145.63;62.02;38257.72;5029086;28;20051;-70
2023/07/28 08:07:42;;;;;;;13.13;11.10;;;;;;;-145.63;62.18;38228.41;5032127;28;20083;-69
2023/07/28 08:10:08;;;;;;;15.38;10.75;;;;;;;-145.63;61.77;38279.22;5033595;28;20026;-70
2023/07/28 08:12:34;;;;;;;16.58;11.60;;;;;;;-145.63;61.56;38116.94;5037596;28;20305;-69
2023/07/28 08:15:00;;;;;;;14.55;11.63;;;;;;;-145.63;61.44;38175.59;5036558;28;20034;-68
2023/07/28 08:17:26;;;;;;;15.88;11.30;;;;;;;-145.63;62.28;38163.88;5033333;28;20029;-69
2023/07/28 08:19:51;;;;;;;24.70;11.35;;;;;;;-145.63;60.71;38128.69;5034501;28;20360;-70
2023/07/28 08:22:17;;;;;;;15.13;10.43;;;;;;;-145.63;60.18;38187.34;5036161;28;20389;-69
2023/07/28 08:24:43;;;;;;;17.23;10.40;;;;;;;-145.63;60.78;38136.50;5034560;28;20036;-69
2023/07/28 08:27:08;;;;;;;18.88;11.55;;;;;;;-145.63;61.54;38101.31;5034889;28;20029;-69
2023/07/28 08:29:34;;;;;;;11.48;9.30;;;;;;;-145.63;59.26;38044.63;5036139;28;20021;-69
2023/07/28 08:32:00;;;;;;;16.65;9.98;;;;;;;-145.63;59.72;38023.09;5035158;28;20034;-71
2023/07/28 08:34:27;;;;;;;14.68;10.05;;;;;;;-145.63;59.53;38036.78;5030174;28;20083;-69
2023/07/28 08:36:52;;;;;;;13.27;10.70;;;;;;;-145.63;58.53;38003.56;5028640;28;20026;-70
2023/07/28 08:39:18;;;;;;;13.63;10.05;;;;;;;-145.63;57.26;38005.50;5025049;28;20049;-69
2023/07/28 08:41:44;;;;;;;12.20;10.70;;;;;;;-145.63;57.85;37950.75;5040990;28;20025;-70
2023/07/28 08:44:09;;;;;;;12.52;10.60;;;;;;;-145.63;57.59;37987.91;5033718;28;20056;-70
2023/07/28 08:46:36;;;;;;;13.35;10.88;;;;;;;-145.63;58.41;37962.50;5033279;28;20046;-70
2023/07/28 08:49:02;;;;;;;14.32;8.48;;;;;;;-145.63;55.08;37989.88;5034147;28;20025;-71
2023/07/28 08:51:30;;;;;;;12.73;9.60;;;;;;;-145.63;55.22;37980.09;5007717;28;20040;-70
2023/07/28 08:53:56;;;;;;;11.20;8.95;;;;;;;-145.63;54.58;37972.28;5025139;28;20272;-71
2023/07/28 08:56:24;;;;;;;11.65;8.68;;;;;;;-145.63;54.67;37942.94;5020074;28;20017;-71
2023/07/28 08:58:57;;;;;;;10.73;8.93;;;;;;;-145.63;56.07;37858.88;5040942;28;20092;-72
2023/07/28 09:01:23;;;;;;;13.75;8.98;;;;;;;-145.63;54.57;37858.88;5026336;28;20029;-69
2023/07/28 09:03:49;;;;;;;9.48;8.23;;;;;;;-145.63;52.69;37854.97;5033119;28;20113;-70
2023/07/28 09:06:15;;;;;;;11.57;7.80;;;;;;;-145.63;53.22;37862.78;5024268;28;20022;-70
2023/07/28 09:08:43;;;;;;;10.35;8.32;;;;;;;-145.63;53.17;37843.25;5042305;28;20100;-71
2023/07/28 09:11:08;;;;;;;12.60;8.52;;;;;;;-145.63;53.39;37882.34;5034537;28;20025;-70
2023/07/28 09:13:41;;;;;;;14.10;8.77;;;;;;;-145.63;53.45;37839.31;5034490;28;20214;-70
2023/07/28 09:16:18;;;;;;;10.93;8.43;;;;;;;-145.63;54.24;37677.06;5036580;28;20345;-69
2023/07/28 09:18:44;;;;;;;13.50;9.35;;;;;;;-145.63;53.56;37874.53;5033711;28;20092;-68
2023/07/28 09:21:20;;;;;;;12.48;9.90;;;;;;;-145.63;53.88;37884.28;5030285;28;20025;-70
2023/07/28 09:23:47;;;;;;;13.88;9.38;;;;;;;-145.63;53.09;37929.25;5036799;28;20088;-70
2023/07/28 09:26:15;;;;;;;12.30;9.00;;;;;;;-145.63;53.37;37948.81;5024082;28;20045;-68
2023/07/28 09:28:41;;;;;;;11.70;8.38;;;;;;;-145.63;53.81;37917.53;5027638;28;20330;-68
2023/07/28 09:31:08;;;;;;;12.07;8.48;;;;;;;-145.63;54.34;37950.75;5034054;28;20222;-69
2023/07/28 09:33:35;;;;;;;14.98;8.95;;;;;;;-145.63;54.81;37948.81;5039907;28;20045;-71
2023/07/28 09:36:09;;;;;;;11.52;9.30;;;;;;;-145.63;54.09;38023.09;5035819;28;20033;-70
2023/07/28 09:38:40;;;;;;;13.45;8.77;;;;;;;-145.63;53.99;38003.56;5031918;28;20049;-69
2023/07/28 09:41:10;;;;;;;15.18;10.02;;;;;;;-145.63;54.70;37954.69;5031397;28;20033;-69
2023/07/28 09:43:39;;;;;;;10.60;8.43;;;;;;;-145.63;54.63;37952.72;5028341;28;20081;-69
2023/07/28 09:46:08;;;;;;;14.05;8.50;;;;;;;-145.63;54.36;38019.19;5028181;28;20033;-68
2023/07/28 09:48:34;;;;;;;12.23;8.90;;;;;;;-145.63;54.90;38001.59;5043303;28;20080;-69
2023/07/28 09:51:09;;;;;;;11.30;9.65;;;;;;;-145.63;55.80;38028.97;5023996;28;20056;-71
2023/07/28 09:53:44;;;;;;;12.30;9.65;;;;;;;-145.63;54.48;38101.31;5032643;28;20516;-69
2023/07/28 09:56:13;;;;;;;14.77;8.20;;;;;;;-145.63;53.63;38081.75;5032376;28;20211;-68
2023/07/28 09:58:43;;;;;;;9.93;8.43;;;;;;;-145.63;53.65;38075.91;5023728;28;20044;-69
2023/07/28 10:01:10;;;;;;;11.10;8.73;;;;;;;-145.63;54.38;38093.50;5024865;28;20028;-68
2023/07/28 10:03:37;;;;;;;10.77;8.95;;;;;;;-145.63;54.56;38070.03;5032890;28;20036;-67
2023/07/28 10:06:03;;;;;;;15.13;9.60;;;;;;;-145.63;55.46;37982.03;5032468;28;20037;-68
2023/07/28 10:08:29;;;;;;;12.45;10.57;;;;;;;-145.63;56.01;38101.31;5036331;28;20052;-68
2023/07/28 10:10:56;;;;;;;15.27;11.20;;;;;;;-145.63;57.12;38116.94;5030513;28;20025;-68
2023/07/28 10:13:44;;;;;;;15.13;11.23;;;;;;;-145.63;58.15;38097.41;5024814;28;20323;-70
2023/07/28 10:16:10;;;;;;;13.52;11.32;;;;;;;-145.63;58.29;38154.09;5025479;28;20029;-68
2023/07/28 10:18:37;;;;;;;15.90;11.93;;;;;;;-145.63;58.37;38126.72;5043144;28;20036;-68
2023/07/28 10:21:10;;;;;;;13.93;11.55;;;;;;;-145.63;58.30;38177.56;5042339;28;20062;-68
2023/07/28 10:23:38;;;;;;;14.52;12.20;;;;;;;-145.63;58.83;38171.69;5039601;28;20033;-68
2023/07/28 10:26:05;;;;;;;15.35;12.43;;;;;;;-145.63;59.13;38165.84;5030873;28;20072;-69
2023/07/28 10:28:40;;;;;;;16.98;14.50;;;;;;;-145.63;59.87;38199.06;5030772;28;20351;-68
2023/07/28 10:31:08;;;;;;;18.38;14.90;;;;;;;-145.63;60.39;38195.16;5043134;28;20030;-69
2023/07/28 10:33:38;;;;;;;20.33;16.38;;;;;;;-145.63;61.01;38222.53;5042971;28;20041;-69
2023/07/28 10:36:22;;;;;;;17.85;14.85;;;;;;;-145.63;60.66;38173.66;5023190;28;20101;-69
2023/07/28 10:39:17;;;;;;;19.73;15.05;;;;;;;-145.63;61.94;38199.06;5036668;28;20187;-68
2023/07/28 10:42:08;;;;;;;19.27;16.10;;;;;;;-145.63;61.20;38210.81;5036729;28;20068;-68
2023/07/28 10:44:34;;;;;;;19.27;15.98;;;;;;;-145.63;61.94;38191.25;5042927;28;20329;-69
2023/07/28 10:47:01;;;;;;;16.77;15.07;;;;;;;-145.63;61.58;38204.94;5031400;28;20058;-68
2023/07/28 10:49:28;;;;;;;16.75;15.00;;;;;;;-145.63;61.02;38173.66;5030169;28;20093;-68
2023/07/28 10:51:54;;;;;;;18.55;16.65;;;;;;;-145.63;62.19;38208.84;5040062;28;20237;-68
2023/07/28 10:54:21;;;;;;;24.23;18.00;;;;;;;-145.63;62.00;38228.41;5022763;28;20018;-69
2023/07/28 10:56:48;;;;;;;17.00;15.00;;;;;;;-145.63;61.46;38173.66;5042733;28;20281;-68
2023/07/28 10:59:15;;;;;;;19.30;16.67;;;;;;;-145.63;62.05;38181.47;5043397;28;20089;-69
2023/07/28 11:01:42;;;;;;;23.30;18.35;;;;;;;-145.63;62.32;38124.78;5040185;28;20049;-68